sensor_id;sensor_type;location;lat;lon;timestamp;pressure;altitude;pressure_sealevel;temperature;humidity
53340;BME280;46212;50.258;19.062;2023-02-21T00:00:04;97918.72;;;9.62;68.66
53340;BME280;46212;50.258;19.062;2023-02-21T00:02:48;97924.53;;;9.64;68.64
53340;BME280;46212;50.258;19.062;2023-02-21T00:05:32;97923.47;;;9.61;69.01
53340;BME280;46212;50.258;19.062;2023-02-21T00:08:16;97929.91;;;9.58;69.46
53340;BME280;46212;50.258;19.062;2023-02-21T00:11:00;97921.81;;;9.55;69.35
53340;BME280;46212;50.258;19.062;2023-02-21T00:13:44;97894.78;;;9.44;68.92
53340;BME280;46212;50.258;19.062;2023-02-21T00:16:28;97900.53;;;9.55;68.84
53340;BME280;46212;50.258;19.062;2023-02-21T00:19:12;97884.50;;;9.45;68.71
53340;BME280;46212;50.258;19.062;2023-02-21T00:21:56;97918.47;;;9.51;68.04
53340;BME280;46212;50.258;19.062;2023-02-21T00:24:40;97890.94;;;9.42;68.08
53340;BME280;46212;50.258;19.062;2023-02-21T00:27:24;97918.47;;;9.51;68.44
53340;BME280;46212;50.258;19.062;2023-02-21T00:30:08;97907.94;;;9.40;68.61
53340;BME280;46212;50.258;19.062;2023-02-21T00:32:52;97926.59;;;9.45;70.16
53340;BME280;46212;50.258;19.062;2023-02-21T00:35:36;97926.03;;;9.23;71.20
53340;BME280;46212;50.258;19.062;2023-02-21T00:38:20;97934.13;;;9.36;71.82
53340;BME280;46212;50.258;19.062;2023-02-21T00:41:04;97905.72;;;9.12;72.36
53340;BME280;46212;50.258;19.062;2023-02-21T00:43:48;97903.44;;;9.19;72.53
53340;BME280;46212;50.258;19.062;2023-02-21T00:46:33;97909.84;;;9.25;73.07
53340;BME280;46212;50.258;19.062;2023-02-21T00:49:17;97919.22;;;9.10;74.64
53340;BME280;46212;50.258;19.062;2023-02-21T00:52:01;97917.38;;;8.97;75.66
53340;BME280;46212;50.258;19.062;2023-02-21T00:54:45;97887.13;;;8.70;76.27
53340;BME280;46212;50.258;19.062;2023-02-21T00:57:29;97887.72;;;8.92;75.87
53340;BME280;46212;50.258;19.062;2023-02-21T01:00:22;97879.94;;;8.73;76.38
53340;BME280;46212;50.258;19.062;2023-02-21T01:03:07;97891.53;;;8.86;75.86
53340;BME280;46212;50.258;19.062;2023-02-21T01:05:52;97893.69;;;8.91;75.87
53340;BME280;46212;50.258;19.062;2023-02-21T01:08:39;97862.78;;;8.87;75.68
53340;BME280;46212;50.258;19.062;2023-02-21T01:11:24;97893.53;;;9.03;75.72
53340;BME280;46212;50.258;19.062;2023-02-21T01:14:08;97899.03;;;9.03;76.01
53340;BME280;46212;50.258;19.062;2023-02-21T01:16:52;97899.19;;;9.00;76.26
53340;BME280;46212;50.258;19.062;2023-02-21T01:19:36;97883.59;;;8.79;77.03
53340;BME280;46212;50.258;19.062;2023-02-21T01:22:20;97894.78;;;8.84;77.30
53340;BME280;46212;50.258;19.062;2023-02-21T01:25:04;97880.69;;;8.73;77.88
53340;BME280;46212;50.258;19.062;2023-02-21T01:27:49;97855.94;;;8.73;77.72
53340;BME280;46212;50.258;19.062;2023-02-21T01:30:33;97872.41;;;8.91;77.86
53340;BME280;46212;50.258;19.062;2023-02-21T01:33:17;97883.75;;;8.75;79.07
53340;BME280;46212;50.258;19.062;2023-02-21T01:36:04;97883.94;;;8.72;79.27
53340;BME280;46212;50.258;19.062;2023-02-21T01:38:48;97892.50;;;8.56;80.55
53340;BME280;46212;50.258;19.062;2023-02-21T01:41:32;97885.00;;;8.65;81.27
53340;BME280;46212;50.258;19.062;2023-02-21T01:44:32;97850.47;;;8.46;82.57
53340;BME280;46212;50.258;19.062;2023-02-21T01:47:16;97868.19;;;8.36;83.54
53340;BME280;46212;50.258;19.062;2023-02-21T01:50:05;97851.06;;;8.32;84.98
53340;BME280;46212;50.258;19.062;2023-02-21T01:52:50;97842.50;;;8.12;85.79
53340;BME280;46212;50.258;19.062;2023-02-21T01:55:37;97852.25;;;8.22;86.63
53340;BME280;46212;50.258;19.062;2023-02-21T01:58:23;97841.88;;;8.08;87.78
53340;BME280;46212;50.258;19.062;2023-02-21T02:01:11;97863.41;;;8.09;89.08
53340;BME280;46212;50.258;19.062;2023-02-21T02:03:58;97865.09;;;8.25;88.74
53340;BME280;46212;50.258;19.062;2023-02-21T02:06:42;97861.13;;;8.08;90.01
53340;BME280;46212;50.258;19.062;2023-02-21T02:09:26;97858.38;;;8.08;90.37
53340;BME280;46212;50.258;19.062;2023-02-21T02:12:24;97827.34;;;7.80;90.98
53340;BME280;46212;50.258;19.062;2023-02-21T02:37:24;97821.75;;;7.43;96.91
53340;BME280;46212;50.258;19.062;2023-02-21T02:39:59;97822.53;;;7.44;97.16
53340;BME280;46212;50.258;19.062;2023-02-21T02:43:17;97842.56;;;7.72;97.09
53340;BME280;46212;50.258;19.062;2023-02-21T02:45:48;97845.00;;;7.61;97.25
53340;BME280;46212;50.258;19.062;2023-02-21T02:48:20;97883.38;;;7.42;98.33
53340;BME280;46212;50.258;19.062;2023-02-21T02:50:48;97844.13;;;7.33;100.00
53340;BME280;46212;50.258;19.062;2023-02-21T02:53:20;97856.41;;;7.50;100.00
53340;BME280;46212;50.258;19.062;2023-02-21T02:55:53;97824.41;;;7.16;100.00
53340;BME280;46212;50.258;19.062;2023-02-21T02:58:21;97858.59;;;7.24;100.00
53340;BME280;46212;50.258;19.062;2023-02-21T03:06:47;97857.44;;;7.34;100.00
53340;BME280;46212;50.258;19.062;2023-02-21T03:09:28;97854.75;;;7.13;100.00
53340;BME280;46212;50.258;19.062;2023-02-21T03:12:04;97854.66;;;7.25;100.00
53340;BME280;46212;50.258;19.062;2023-02-21T03:14:40;97865.16;;;7.27;100.00
53340;BME280;46212;50.258;19.062;2023-02-21T03:17:12;97860.25;;;7.13;100.00
53340;BME280;46212;50.258;19.062;2023-02-21T03:19:44;97866.94;;;7.12;100.00
53340;BME280;46212;50.258;19.062;2023-02-21T03:22:14;97830.44;;;7.02;100.00
53340;BME280;46212;50.258;19.062;2023-02-21T03:24:43;97814.59;;;7.06;100.00
53340;BME280;46212;50.258;19.062;2023-02-21T03:27:10;97853.31;;;7.39;100.00
53340;BME280;46212;50.258;19.062;2023-02-21T03:29:37;97858.63;;;7.33;100.00
53340;BME280;46212;50.258;19.062;2023-02-21T03:32:12;97864.41;;;7.26;100.00
53340;BME280;46212;50.258;19.062;2023-02-21T03:34:41;97856.03;;;7.30;100.00
53340;BME280;46212;50.258;19.062;2023-02-21T03:37:10;97848.13;;;7.32;100.00
53340;BME280;46212;50.258;19.062;2023-02-21T03:39:42;97831.25;;;7.12;100.00
53340;BME280;46212;50.258;19.062;2023-02-21T03:42:07;97854.47;;;7.20;100.00
53340;BME280;46212;50.258;19.062;2023-02-21T03:44:32;97880.31;;;7.31;100.00
53340;BME280;46212;50.258;19.062;2023-02-21T03:46:58;97855.72;;;7.28;100.00
53340;BME280;46212;50.258;19.062;2023-02-21T03:49:23;97857.56;;;7.31;100.00
53340;BME280;46212;50.258;19.062;2023-02-21T03:51:49;97849.97;;;7.04;100.00
53340;BME280;46212;50.258;19.062;2023-02-21T03:54:14;97843.81;;;7.22;100.00
53340;BME280;46212;50.258;19.062;2023-02-21T03:56:39;97865.41;;;7.11;100.00
53340;BME280;46212;50.258;19.062;2023-02-21T03:59:05;97848.44;;;7.03;100.00
53340;BME280;46212;50.258;19.062;2023-02-21T04:01:30;97840.91;;;6.94;100.00
53340;BME280;46212;50.258;19.062;2023-02-21T04:03:56;97846.25;;;7.20;100.00
53340;BME280;46212;50.258;19.062;2023-02-21T04:06:21;97856.25;;;7.14;100.00
53340;BME280;46212;50.258;19.062;2023-02-21T04:08:47;97851.59;;;6.92;100.00
53340;BME280;46212;50.258;19.062;2023-02-21T04:11:17;97835.41;;;6.94;100.00
53340;BME280;46212;50.258;19.062;2023-02-21T04:13:42;97863.84;;;7.01;100.00
53340;BME280;46212;50.258;19.062;2023-02-21T04:16:07;97878.19;;;7.05;100.00
53340;BME280;46212;50.258;19.062;2023-02-21T04:18:33;97871.41;;;7.18;100.00
53340;BME280;46212;50.258;19.062;2023-02-21T04:20:58;97852.13;;;7.09;100.00
53340;BME280;46212;50.258;19.062;2023-02-21T04:23:24;97828.28;;;6.97;100.00
53340;BME280;46212;50.258;19.062;2023-02-21T04:25:49;97827.44;;;6.78;100.00
53340;BME280;46212;50.258;19.062;2023-02-21T04:28:15;97860.72;;;6.89;100.00
53340;BME280;46212;50.258;19.062;2023-02-21T04:30:40;97848.63;;;7.09;100.00
53340;BME280;46212;50.258;19.062;2023-02-21T04:33:06;97857.50;;;7.13;100.00
53340;BME280;46212;50.258;19.062;2023-02-21T04:35:32;97875.00;;;7.06;100.00
53340;BME280;46212;50.258;19.062;2023-02-21T04:37:57;97836.97;;;6.95;100.00
53340;BME280;46212;50.258;19.062;2023-02-21T04:40:22;97853.97;;;7.12;100.00
53340;BME280;46212;50.258;19.062;2023-02-21T04:42:48;97858.91;;;6.95;100.00
53340;BME280;46212;50.258;19.062;2023-02-21T04:45:13;97870.81;;;6.92;100.00
53340;BME280;46212;50.258;19.062;2023-02-21T04:47:39;97858.66;;;7.03;100.00
53340;BME280;46212;50.258;19.062;2023-02-21T04:50:04;97858.88;;;7.17;100.00
53340;BME280;46212;50.258;19.062;2023-02-21T04:52:30;97861.09;;;7.01;100.00
53340;BME280;46212;50.258;19.062;2023-02-21T04:54:55;97820.28;;;6.81;100.00
53340;BME280;46212;50.258;19.062;2023-02-21T04:57:21;97881.22;;;6.98;100.00
53340;BME280;46212;50.258;19.062;2023-02-21T04:59:46;97857.75;;;7.06;100.00
53340;BME280;46212;50.258;19.062;2023-02-21T05:02:12;97857.28;;;7.07;100.00
53340;BME280;46212;50.258;19.062;2023-02-21T05:04:37;97855.09;;;6.93;100.00
53340;BME280;46212;50.258;19.062;2023-02-21T05:07:03;97863.63;;;6.95;100.00
53340;BME280;46212;50.258;19.062;2023-02-21T05:09:29;97872.00;;;6.91;100.00
53340;BME280;46212;50.258;19.062;2023-02-21T05:11:55;97884.47;;;7.14;100.00
53340;BME280;46212;50.258;19.062;2023-02-21T05:14:20;97863.25;;;7.06;100.00
53340;BME280;46212;50.258;19.062;2023-02-21T05:16:46;97861.84;;;7.01;100.00
53340;BME280;46212;50.258;19.062;2023-02-21T05:19:11;97882.25;;;6.91;100.00
53340;BME280;46212;50.258;19.062;2023-02-21T05:21:37;97875.97;;;6.90;100.00
53340;BME280;46212;50.258;19.062;2023-02-21T05:24:06;97876.03;;;7.00;100.00
53340;BME280;46212;50.258;19.062;2023-02-21T05:26:35;97880.63;;;7.03;100.00
53340;BME280;46212;50.258;19.062;2023-02-21T05:29:01;97875.03;;;7.15;100.00
53340;BME280;46212;50.258;19.062;2023-02-21T05:31:27;97874.28;;;7.15;100.00
53340;BME280;46212;50.258;19.062;2023-02-21T05:33:53;97866.84;;;7.24;100.00
53340;BME280;46212;50.258;19.062;2023-02-21T05:36:18;97865.06;;;7.00;100.00
53340;BME280;46212;50.258;19.062;2023-02-21T05:38:49;97878.94;;;7.05;100.00
53340;BME280;46212;50.258;19.062;2023-02-21T05:41:15;97862.22;;;7.12;100.00
53340;BME280;46212;50.258;19.062;2023-02-21T05:43:43;97863.59;;;7.17;100.00
53340;BME280;46212;50.258;19.062;2023-02-21T05:46:16;97861.56;;;7.08;100.00
53340;BME280;46212;50.258;19.062;2023-02-21T05:48:42;97844.63;;;6.79;100.00
53340;BME280;46212;50.258;19.062;2023-02-21T05:51:07;97846.19;;;6.80;100.00
53340;BME280;46212;50.258;19.062;2023-02-21T05:53:33;97866.28;;;7.08;100.00
53340;BME280;46212;50.258;19.062;2023-02-21T05:55:58;97879.09;;;7.02;100.00
53340;BME280;46212;50.258;19.062;2023-02-21T05:58:23;97863.25;;;7.06;100.00
53340;BME280;46212;50.258;19.062;2023-02-21T06:00:50;97878.78;;;7.00;100.00
53340;BME280;46212;50.258;19.062;2023-02-21T06:03:15;97860.13;;;7.25;100.00
53340;BME280;46212;50.258;19.062;2023-02-21T06:05:41;97876.25;;;7.14;100.00
53340;BME280;46212;50.258;19.062;2023-02-21T06:08:06;97851.06;;;7.07;100.00
53340;BME280;46212;50.258;19.062;2023-02-21T06:10:31;97859.78;;;7.14;100.00
53340;BME280;46212;50.258;19.062;2023-02-21T06:12:57;97859.50;;;7.21;100.00
53340;BME280;46212;50.258;19.062;2023-02-21T06:15:22;97844.63;;;7.01;100.00
53340;BME280;46212;50.258;19.062;2023-02-21T06:17:47;97856.34;;;7.01;100.00
53340;BME280;46212;50.258;19.062;2023-02-21T06:20:13;97866.25;;;6.99;100.00
53340;BME280;46212;50.258;19.062;2023-02-21T06:22:41;97871.34;;;7.09;100.00
53340;BME280;46212;50.258;19.062;2023-02-21T06:25:07;97863.69;;;7.04;100.00
53340;BME280;46212;50.258;19.062;2023-02-21T06:27:33;97886.53;;;7.23;100.00
53340;BME280;46212;50.258;19.062;2023-02-21T06:29:58;97851.88;;;6.94;100.00
53340;BME280;46212;50.258;19.062;2023-02-21T06:32:24;97873.53;;;7.23;100.00
53340;BME280;46212;50.258;19.062;2023-02-21T06:34:49;97877.47;;;7.44;100.00
53340;BME280;46212;50.258;19.062;2023-02-21T06:37:17;97876.16;;;7.27;100.00
53340;BME280;46212;50.258;19.062;2023-02-21T06:39:42;97897.00;;;7.46;100.00
53340;BME280;46212;50.258;19.062;2023-02-21T06:42:12;97886.09;;;7.33;100.00
53340;BME280;46212;50.258;19.062;2023-02-21T06:44:38;97897.69;;;7.28;100.00
53340;BME280;46212;50.258;19.062;2023-02-21T06:47:03;97902.91;;;7.35;100.00
53340;BME280;46212;50.258;19.062;2023-02-21T06:49:29;97896.41;;;7.20;100.00
53340;BME280;46212;50.258;19.062;2023-02-21T06:51:54;97875.22;;;7.21;100.00
53340;BME280;46212;50.258;19.062;2023-02-21T06:54:19;97909.66;;;7.43;100.00
53340;BME280;46212;50.258;19.062;2023-02-21T06:56:46;97909.81;;;7.49;100.00
53340;BME280;46212;50.258;19.062;2023-02-21T06:59:11;97902.81;;;7.48;100.00
53340;BME280;46212;50.258;19.062;2023-02-21T07:01:37;97915.63;;;7.42;100.00
53340;BME280;46212;50.258;19.062;2023-02-21T07:04:02;97883.22;;;7.37;100.00
53340;BME280;46212;50.258;19.062;2023-02-21T07:06:28;97913.34;;;7.49;100.00
53340;BME280;46212;50.258;19.062;2023-02-21T07:08:53;97914.72;;;7.45;100.00
53340;BME280;46212;50.258;19.062;2023-02-21T07:11:19;97914.06;;;7.41;100.00
53340;BME280;46212;50.258;19.062;2023-02-21T07:13:52;97893.44;;;7.36;100.00
53340;BME280;46212;50.258;19.062;2023-02-21T07:16:19;97893.63;;;7.42;100.00
53340;BME280;46212;50.258;19.062;2023-02-21T07:18:45;97925.50;;;7.39;100.00
53340;BME280;46212;50.258;19.062;2023-02-21T07:21:13;97902.22;;;7.53;100.00
53340;BME280;46212;50.258;19.062;2023-02-21T07:23:38;97912.91;;;7.51;100.00
53340;BME280;46212;50.258;19.062;2023-02-21T07:26:04;97915.66;;;7.51;100.00
53340;BME280;46212;50.258;19.062;2023-02-21T07:28:29;97909.00;;;7.39;100.00
53340;BME280;46212;50.258;19.062;2023-02-21T07:30:55;97920.91;;;7.67;100.00
53340;BME280;46212;50.258;19.062;2023-02-21T07:33:20;97917.97;;;7.62;100.00
53340;BME280;46212;50.258;19.062;2023-02-21T07:35:46;97916.03;;;7.80;100.00
53340;BME280;46212;50.258;19.062;2023-02-21T07:38:23;97931.78;;;7.80;100.00
53340;BME280;46212;50.258;19.062;2023-02-21T07:40:49;97934.34;;;7.74;100.00
53340;BME280;46212;50.258;19.062;2023-02-21T07:43:14;97933.78;;;7.88;100.00
53340;BME280;46212;50.258;19.062;2023-02-21T07:45:40;97926.72;;;7.78;100.00
53340;BME280;46212;50.258;19.062;2023-02-21T07:48:05;97933.25;;;7.63;100.00
53340;BME280;46212;50.258;19.062;2023-02-21T07:50:31;97929.31;;;7.73;100.00
53340;BME280;46212;50.258;19.062;2023-02-21T07:52:57;97936.31;;;7.74;100.00
53340;BME280;46212;50.258;19.062;2023-02-21T07:55:24;97943.59;;;7.89;100.00
53340;BME280;46212;50.258;19.062;2023-02-21T07:57:49;97901.88;;;7.91;100.00
53340;BME280;46212;50.258;19.062;2023-02-21T08:00:15;97922.19;;;8.02;99.91
53340;BME280;46212;50.258;19.062;2023-02-21T08:02:41;97886.91;;;7.92;99.19
53340;BME280;46212;50.258;19.062;2023-02-21T08:05:10;97913.91;;;8.42;97.94
53340;BME280;46212;50.258;19.062;2023-02-21T08:07:35;97925.19;;;8.44;97.21
53340;BME280;46212;50.258;19.062;2023-02-21T08:10:01;97922.00;;;8.46;97.64
53340;BME280;46212;50.258;19.062;2023-02-21T08:12:27;97936.22;;;8.44;97.45
53340;BME280;46212;50.258;19.062;2023-02-21T08:14:52;97917.56;;;8.39;97.42
53340;BME280;46212;50.258;19.062;2023-02-21T08:17:18;97936.97;;;8.63;96.81
53340;BME280;46212;50.258;19.062;2023-02-21T08:19:43;97934.53;;;8.47;96.93
53340;BME280;46212;50.258;19.062;2023-02-21T08:22:08;97934.38;;;8.60;97.30
53340;BME280;46212;50.258;19.062;2023-02-21T08:24:35;97944.94;;;8.43;96.91
53340;BME280;46212;50.258;19.062;2023-02-21T08:27:00;97938.50;;;8.82;95.91
53340;BME280;46212;50.258;19.062;2023-02-21T08:29:25;97946.91;;;8.51;96.88
53340;BME280;46212;50.258;19.062;2023-02-21T08:31:51;97936.97;;;8.45;96.98
53340;BME280;46212;50.258;19.062;2023-02-21T08:34:16;97933.47;;;8.44;96.69
53340;BME280;46212;50.258;19.062;2023-02-21T08:36:42;97924.63;;;8.49;96.09
53340;BME280;46212;50.258;19.062;2023-02-21T08:39:08;97934.22;;;8.45;96.95
53340;BME280;46212;50.258;19.062;2023-02-21T08:41:39;97935.13;;;8.33;97.31
53340;BME280;46212;50.258;19.062;2023-02-21T08:44:05;97943.41;;;8.51;97.18
53340;BME280;46212;50.258;19.062;2023-02-21T08:46:31;97945.84;;;8.58;96.49
53340;BME280;46212;50.258;19.062;2023-02-21T08:48:57;97943.25;;;8.45;96.23
53340;BME280;46212;50.258;19.062;2023-02-21T08:51:26;97929.63;;;8.69;94.41
53340;BME280;46212;50.258;19.062;2023-02-21T08:53:52;97936.22;;;8.63;94.42
53340;BME280;46212;50.258;19.062;2023-02-21T08:56:19;97944.91;;;8.97;93.88
53340;BME280;46212;50.258;19.062;2023-02-21T08:58:45;97949.81;;;8.75;93.39
53340;BME280;46212;50.258;19.062;2023-02-21T09:01:11;97937.44;;;8.62;93.83
53340;BME280;46212;50.258;19.062;2023-02-21T09:03:36;97948.75;;;8.73;94.27
53340;BME280;46212;50.258;19.062;2023-02-21T09:06:02;97967.09;;;8.76;94.14
53340;BME280;46212;50.258;19.062;2023-02-21T09:08:28;97945.25;;;8.81;93.77
53340;BME280;46212;50.258;19.062;2023-02-21T09:10:55;97971.09;;;8.84;93.33
53340;BME280;46212;50.258;19.062;2023-02-21T09:13:28;97957.47;;;8.89;92.56
53340;BME280;46212;50.258;19.062;2023-02-21T09:15:54;97955.00;;;8.91;92.86
53340;BME280;46212;50.258;19.062;2023-02-21T09:18:20;97957.19;;;8.78;91.52
53340;BME280;46212;50.258;19.062;2023-02-21T09:20:45;97970.63;;;9.03;91.43
53340;BME280;46212;50.258;19.062;2023-02-21T09:23:16;97970.25;;;9.38;90.83
53340;BME280;46212;50.258;19.062;2023-02-21T09:25:43;97963.06;;;9.40;89.01
53340;BME280;46212;50.258;19.062;2023-02-21T09:28:08;97980.97;;;9.87;87.04
53340;BME280;46212;50.258;19.062;2023-02-21T09:30:33;97971.81;;;9.81;87.75
53340;BME280;46212;50.258;19.062;2023-02-21T09:32:59;97952.03;;;9.40;87.51
53340;BME280;46212;50.258;19.062;2023-02-21T09:35:25;97993.31;;;9.58;88.34
53340;BME280;46212;50.258;19.062;2023-02-21T09:37:50;98008.81;;;9.56;88.73
53340;BME280;46212;50.258;19.062;2023-02-21T09:43:22;97977.75;;;9.37;89.89
53340;BME280;46212;50.258;19.062;2023-02-21T09:45:53;98011.13;;;9.90;88.06
53340;BME280;46212;50.258;19.062;2023-02-21T09:48:20;97985.69;;;9.95;87.52
53340;BME280;46212;50.258;19.062;2023-02-21T09:50:57;97976.31;;;10.35;86.65
53340;BME280;46212;50.258;19.062;2023-02-21T09:53:27;98016.16;;;10.66;84.69
53340;BME280;46212;50.258;19.062;2023-02-21T09:55:57;97977.97;;;10.41;83.64
53340;BME280;46212;50.258;19.062;2023-02-21T09:58:24;98000.56;;;10.31;84.55
53340;BME280;46212;50.258;19.062;2023-02-21T10:00:50;97978.88;;;10.05;86.76
53340;BME280;46212;50.258;19.062;2023-02-21T10:03:30;97998.75;;;9.86;87.91
53340;BME280;46212;50.258;19.062;2023-02-21T10:08:57;97986.09;;;9.70;89.10
53340;BME280;46212;50.258;19.062;2023-02-21T10:19:30;97982.53;;;10.21;87.60
53340;BME280;46212;50.258;19.062;2023-02-21T10:22:01;97997.47;;;10.05;86.55
53340;BME280;46212;50.258;19.062;2023-02-21T10:24:34;97991.66;;;10.36;85.98
53340;BME280;46212;50.258;19.062;2023-02-21T10:27:07;97989.94;;;10.15;85.99
53340;BME280;46212;50.258;19.062;2023-02-21T10:29:56;97990.66;;;10.15;85.75
53340;BME280;46212;50.258;19.062;2023-02-21T10:32:24;97985.06;;;10.33;85.74
53340;BME280;46212;50.258;19.062;2023-02-21T10:34:51;98000.97;;;10.15;85.73
53340;BME280;46212;50.258;19.062;2023-02-21T10:37:43;97997.06;;;10.21;85.45
53340;BME280;46212;50.258;19.062;2023-02-21T10:48:24;98010.88;;;10.21;87.30
53340;BME280;46212;50.258;19.062;2023-02-21T10:51:13;98006.72;;;10.26;87.11
53340;BME280;46212;50.258;19.062;2023-02-21T10:53:46;98005.41;;;10.03;87.28
53340;BME280;46212;50.258;19.062;2023-02-21T10:59:03;97990.34;;;9.20;92.05
53340;BME280;46212;50.258;19.062;2023-02-21T11:01:42;98002.25;;;9.44;92.24
53340;BME280;46212;50.258;19.062;2023-02-21T11:04:24;98002.25;;;9.44;92.12
53340;BME280;46212;50.258;19.062;2023-02-21T11:06:58;98026.72;;;9.51;90.86
53340;BME280;46212;50.258;19.062;2023-02-21T11:14:39;98016.09;;;10.19;86.97
53340;BME280;46212;50.258;19.062;2023-02-21T11:24:59;98018.09;;;9.68;89.30
53340;BME280;46212;50.258;19.062;2023-02-21T11:27:29;98030.56;;;9.54;89.83
53340;BME280;46212;50.258;19.062;2023-02-21T11:29:56;98019.31;;;9.76;89.25
53340;BME280;46212;50.258;19.062;2023-02-21T11:34:50;98017.13;;;10.78;86.28
53340;BME280;46212;50.258;19.062;2023-02-21T11:37:17;97997.56;;;10.20;86.64
53340;BME280;46212;50.258;19.062;2023-02-21T11:39:50;98001.50;;;10.28;87.61
53340;BME280;46212;50.258;19.062;2023-02-21T11:42:31;98000.75;;;10.51;86.09
53340;BME280;46212;50.258;19.062;2023-02-21T11:45:18;98024.03;;;10.97;84.28
53340;BME280;46212;50.258;19.062;2023-02-21T11:47:53;98009.28;;;10.62;83.53
53340;BME280;46212;50.258;19.062;2023-02-21T11:50:25;98047.44;;;11.11;82.34
53340;BME280;46212;50.258;19.062;2023-02-21T11:53:05;98049.16;;;11.08;81.96
53340;BME280;46212;50.258;19.062;2023-02-21T11:55:31;98031.69;;;11.41;79.75
53340;BME280;46212;50.258;19.062;2023-02-21T12:00:39;98038.41;;;12.42;74.08
53340;BME280;46212;50.258;19.062;2023-02-21T12:03:30;98032.88;;;12.27;70.37
53340;BME280;46212;50.258;19.062;2023-02-21T12:09:06;98048.50;;;12.45;70.34
53340;BME280;46212;50.258;19.062;2023-02-21T12:11:37;98071.88;;;11.80;70.23
53340;BME280;46212;50.258;19.062;2023-02-21T12:22:26;98050.22;;;12.08;70.46
53340;BME280;46212;50.258;19.062;2023-02-21T12:45:18;98017.00;;;11.93;65.55
53340;BME280;46212;50.258;19.062;2023-02-21T12:47:59;98022.25;;;11.77;64.95
53340;BME280;46212;50.258;19.062;2023-02-21T12:50:35;98025.94;;;11.30;66.37
53340;BME280;46212;50.258;19.062;2023-02-21T12:55:45;98035.66;;;11.25;69.12
53340;BME280;46212;50.258;19.062;2023-02-21T12:58:39;98024.59;;;11.25;71.23
53340;BME280;46212;50.258;19.062;2023-02-21T13:06:23;98024.66;;;12.88;67.89
53340;BME280;46212;50.258;19.062;2023-02-21T13:11:33;98023.59;;;12.65;66.56
53340;BME280;46212;50.258;19.062;2023-02-21T13:14:00;98029.13;;;12.45;65.37
53340;BME280;46212;50.258;19.062;2023-02-21T13:16:26;98033.22;;;13.51;63.03
53340;BME280;46212;50.258;19.062;2023-02-21T13:19:02;98030.81;;;12.98;63.22
53340;BME280;46212;50.258;19.062;2023-02-21T13:30:13;98019.59;;;14.10;60.53
53340;BME280;46212;50.258;19.062;2023-02-21T13:32:48;98017.66;;;14.21;60.76
53340;BME280;46212;50.258;19.062;2023-02-21T13:35:19;98023.81;;;14.73;59.42
53340;BME280;46212;50.258;19.062;2023-02-21T13:37:49;98037.50;;;14.82;58.81
53340;BME280;46212;50.258;19.062;2023-02-21T13:43:35;98030.88;;;13.44;61.89
53340;BME280;46212;50.258;19.062;2023-02-21T14:02:56;98040.25;;;11.43;70.69
53340;BME280;46212;50.258;19.062;2023-02-21T14:05:23;98053.88;;;11.32;72.21
53340;BME280;46212;50.258;19.062;2023-02-21T14:08:01;98039.78;;;12.87;68.00
53340;BME280;46212;50.258;19.062;2023-02-21T14:10:35;98026.53;;;13.94;63.87
53340;BME280;46212;50.258;19.062;2023-02-21T14:13:06;98035.88;;;13.97;63.20
53340;BME280;46212;50.258;19.062;2023-02-21T14:15:39;98035.28;;;14.98;60.50
53340;BME280;46212;50.258;19.062;2023-02-21T14:18:21;98031.75;;;14.18;60.54
53340;BME280;46212;50.258;19.062;2023-02-21T14:20:51;98047.00;;;13.71;62.83
53340;BME280;46212;50.258;19.062;2023-02-21T14:23:22;98058.56;;;13.38;63.28
53340;BME280;46212;50.258;19.062;2023-02-21T14:26:02;98054.03;;;12.10;67.27
53340;BME280;46212;50.258;19.062;2023-02-21T14:34:13;98044.69;;;11.93;67.72
53340;BME280;46212;50.258;19.062;2023-02-21T14:36:40;98050.28;;;11.55;67.84
53340;BME280;46212;50.258;19.062;2023-02-21T14:39:07;98065.38;;;14.99;56.79
53340;BME280;46212;50.258;19.062;2023-02-21T14:55:28;98062.34;;;20.19;43.94
53340;BME280;46212;50.258;19.062;2023-02-21T15:03:22;98055.69;;;18.32;48.67
53340;BME280;46212;50.258;19.062;2023-02-21T15:08:26;98056.75;;;14.92;55.99
53340;BME280;46212;50.258;19.062;2023-02-21T15:10:59;98084.16;;;14.62;57.84
53340;BME280;46212;50.258;19.062;2023-02-21T15:13:34;98074.75;;;13.97;59.32
53340;BME280;46212;50.258;19.062;2023-02-21T15:16:02;98069.72;;;13.69;60.52
53340;BME280;46212;50.258;19.062;2023-02-21T15:24:12;98081.56;;;12.69;62.83
53340;BME280;46212;50.258;19.062;2023-02-21T15:26:38;98071.34;;;11.67;66.34
53340;BME280;46212;50.258;19.062;2023-02-21T15:29:10;98088.09;;;12.16;65.47
53340;BME280;46212;50.258;19.062;2023-02-21T15:34:41;98083.16;;;11.91;65.62
53340;BME280;46212;50.258;19.062;2023-02-21T15:39:50;98090.59;;;11.47;67.04
53340;BME280;46212;50.258;19.062;2023-02-21T15:42:17;98091.81;;;11.31;67.25
53340;BME280;46212;50.258;19.062;2023-02-21T15:44:47;98094.47;;;11.02;68.17
53340;BME280;46212;50.258;19.062;2023-02-21T15:47:18;98094.16;;;11.24;67.82
53340;BME280;46212;50.258;19.062;2023-02-21T15:50:07;98099.09;;;11.43;67.76
53340;BME280;46212;50.258;19.062;2023-02-21T15:52:42;98102.84;;;10.60;70.53
53340;BME280;46212;50.258;19.062;2023-02-21T15:58:08;98092.25;;;10.35;71.33
53340;BME280;46212;50.258;19.062;2023-02-21T16:00:44;98108.88;;;10.07;72.91
53340;BME280;46212;50.258;19.062;2023-02-21T16:03:41;98112.06;;;10.15;72.82
53340;BME280;46212;50.258;19.062;2023-02-21T16:06:43;98100.31;;;10.15;73.04
53340;BME280;46212;50.258;19.062;2023-02-21T16:11:53;98124.38;;;10.05;74.83
53340;BME280;46212;50.258;19.062;2023-02-21T16:14:24;98134.47;;;10.08;75.36
53340;BME280;46212;50.258;19.062;2023-02-21T16:17:39;98130.66;;;9.96;75.30
53340;BME280;46212;50.258;19.062;2023-02-21T16:19:44;98139.50;;;10.19;75.26
53340;BME280;46212;50.258;19.062;2023-02-21T16:24:42;98143.22;;;9.97;76.39